Duluth, GA (30097)

5:13 PM EDT on August 30, 2015 (GMT -0400)
Rivermore Park | | Change Station
CLOSE
Current Station
Personal Weather Station
Location: Suwanee, GA
Elevation: 942 ft
Nearby Weather Stations

Elev 942 ft 34.07 °N, 84.11 °W | Updated 3 minutes ago

Mostly Cloudy
Mostly Cloudy
72.9 °F
Feels Like 74 °F
N
3.2
Wind Variable Wind from NE

Today
High -- | Low -- °F
--% Chance of Precip.
Yesterday
High -- | Low -- °F
Precip. -- in
7:08 AM 8:05 PM
Full, 98% visible
Pressure 30.07 in
Visibility 10.0 miles
Clouds Overcast 1800 ft
Heat Index 74 °F
Dew Point 66 °F
Humidity 78%
Rainfall 0.38 in
Snow Depth Not available.
UV 2 out of 12
Pollen 6.60 out of 12
Air Quality Not available.
Flu Activity Not available.
METAR KPDK 302053Z VRB03KT 10SM OVC018 23/18 A3011 RMK AO2 SLP183 T02280183 56013
Pressure 30.07 in
Visibility 10.0 miles
Clouds Overcast 1800 ft
Heat Index 74 °F
Dew Point 66 °F
Humidity 78%
Rainfall 0.38 in
Snow Depth Not available.
UV 2 out of 12
Pollen 6.60 out of 12
Air Quality Not available.
Flu Activity Not available.
METAR KPDK 302053Z VRB03KT 10SM OVC018 23/18 A3011 RMK AO2 SLP183 T02280183 56013

10-Day Weather Forecast

×

Almanac

Astronomy

Aug. 30, 2015 Rise Set
Actual Time
Civil Twilight
Nautical Twilight
Astronomical Twilight
Moon
Length of Visible Light
Length of Day
Tomorrow will be .
, % of the Moon is Illuminated

Today's Extremes

State Highs State Lows

Community

WunderPhotos

Upload Photos

1,851,062 photos uploaded!

WunderBlogs® & News

Nearby

Air Quality

  Air Quality AQ Index Pollutant
Not available.

Snow Depth

Station Depth Elevation

Earthquake Activity

City Distance Mag. Time & Date
Minimum magnitude displayed is 2.5.

Coastal Water Temperatures

Place Temperature

Stations

Nearby Weather Stations

Station Location Temp. Windchill Dew Point Humidity Wind Precip. Elev Updated Type